sensor_id;sensor_type;location;lat;lon;timestamp;temperature;humidity
27745;DHT22;61387;48.112;8.616;2023-04-06T00:01:10;-1.70;99.90
27745;DHT22;61387;48.112;8.616;2023-04-06T00:03:37;-1.70;99.90
27745;DHT22;61387;48.112;8.616;2023-04-06T00:06:03;-1.80;99.90
27745;DHT22;61387;48.112;8.616;2023-04-06T00:08:28;-1.80;99.90
27745;DHT22;61387;48.112;8.616;2023-04-06T00:10:54;-1.80;99.90
27745;DHT22;61387;48.112;8.616;2023-04-06T00:13:20;-1.80;99.90
27745;DHT22;61387;48.112;8.616;2023-04-06T00:15:45;-1.90;99.90
27745;DHT22;61387;48.112;8.616;2023-04-06T00:18:11;-1.90;99.90
27745;DHT22;61387;48.112;8.616;2023-04-06T00:20:37;-1.90;99.90
27745;DHT22;61387;48.112;8.616;2023-04-06T00:23:02;-1.90;99.90
27745;DHT22;61387;48.112;8.616;2023-04-06T00:27:54;-1.90;99.90
27745;DHT22;61387;48.112;8.616;2023-04-06T00:30:20;-1.90;99.90
27745;DHT22;61387;48.112;8.616;2023-04-06T00:35:11;-1.90;99.90
27745;DHT22;61387;48.112;8.616;2023-04-06T00:37:37;-2.00;99.90
27745;DHT22;61387;48.112;8.616;2023-04-06T00:40:03;-2.10;99.90
27745;DHT22;61387;48.112;8.616;2023-04-06T00:42:28;-2.10;99.90
27745;DHT22;61387;48.112;8.616;2023-04-06T00:47:21;-2.10;99.90
27745;DHT22;61387;48.112;8.616;2023-04-06T00:49:47;-2.20;99.90
27745;DHT22;61387;48.112;8.616;2023-04-06T00:52:14;-2.20;99.90
27745;DHT22;61387;48.112;8.616;2023-04-06T00:57:06;-2.20;99.90
27745;DHT22;61387;48.112;8.616;2023-04-06T01:01:57;-2.30;99.90
27745;DHT22;61387;48.112;8.616;2023-04-06T01:04:24;-2.30;99.90
27745;DHT22;61387;48.112;8.616;2023-04-06T01:09:17;-2.30;99.90
27745;DHT22;61387;48.112;8.616;2023-04-06T01:21:27;-2.40;99.90
27745;DHT22;61387;48.112;8.616;2023-04-06T01:23:52;-2.40;99.90
27745;DHT22;61387;48.112;8.616;2023-04-06T01:33:36;-2.40;99.90
27745;DHT22;61387;48.112;8.616;2023-04-06T01:36:03;-2.40;99.90
27745;DHT22;61387;48.112;8.616;2023-04-06T01:38:28;-2.50;99.90
27745;DHT22;61387;48.112;8.616;2023-04-06T01:43:20;-2.60;99.90
27745;DHT22;61387;48.112;8.616;2023-04-06T01:45:46;-2.60;99.90
27745;DHT22;61387;48.112;8.616;2023-04-06T01:53:03;-2.70;99.90
27745;DHT22;61387;48.112;8.616;2023-04-06T01:55:29;-2.70;99.90
27745;DHT22;61387;48.112;8.616;2023-04-06T02:00:20;-2.80;99.90
27745;DHT22;61387;48.112;8.616;2023-04-06T02:10:04;-3.00;99.90
27745;DHT22;61387;48.112;8.616;2023-04-06T02:12:30;-3.00;99.90
27745;DHT22;61387;48.112;8.616;2023-04-06T02:14:55;-3.00;99.90
27745;DHT22;61387;48.112;8.616;2023-04-06T02:17:21;-3.00;99.90
27745;DHT22;61387;48.112;8.616;2023-04-06T02:19:46;-2.80;99.90
27745;DHT22;61387;48.112;8.616;2023-04-06T02:24:38;-2.80;99.90
27745;DHT22;61387;48.112;8.616;2023-04-06T02:29:29;-2.80;99.90
27745;DHT22;61387;48.112;8.616;2023-04-06T02:31:55;-2.80;99.90
27745;DHT22;61387;48.112;8.616;2023-04-06T02:34:20;-2.80;99.90
27745;DHT22;61387;48.112;8.616;2023-04-06T02:36:46;-2.90;99.90
27745;DHT22;61387;48.112;8.616;2023-04-06T02:39:13;-2.90;99.90
27745;DHT22;61387;48.112;8.616;2023-04-06T02:41:39;-2.90;99.90
27745;DHT22;61387;48.112;8.616;2023-04-06T02:44:07;-2.90;99.90
27745;DHT22;61387;48.112;8.616;2023-04-06T02:58:45;-3.00;99.90
27745;DHT22;61387;48.112;8.616;2023-04-06T03:01:11;-2.90;99.90
27745;DHT22;61387;48.112;8.616;2023-04-06T03:06:02;-2.90;99.90
27745;DHT22;61387;48.112;8.616;2023-04-06T03:08:28;-2.90;99.90
27745;DHT22;61387;48.112;8.616;2023-04-06T03:13:20;-2.80;99.90
27745;DHT22;61387;48.112;8.616;2023-04-06T03:15:46;-2.70;99.90
27745;DHT22;61387;48.112;8.616;2023-04-06T03:18:11;-2.80;99.90
27745;DHT22;61387;48.112;8.616;2023-04-06T03:23:03;-2.90;99.90
27745;DHT22;61387;48.112;8.616;2023-04-06T03:25:28;-2.90;99.90
27745;DHT22;61387;48.112;8.616;2023-04-06T03:35:13;-2.90;99.90
27745;DHT22;61387;48.112;8.616;2023-04-06T03:40:05;-2.80;99.90
27745;DHT22;61387;48.112;8.616;2023-04-06T03:42:31;-2.80;99.90
27745;DHT22;61387;48.112;8.616;2023-04-06T03:44:58;-2.80;99.90
27745;DHT22;61387;48.112;8.616;2023-04-06T03:47:24;-2.80;99.90
27745;DHT22;61387;48.112;8.616;2023-04-06T03:49:49;-2.70;99.90
27745;DHT22;61387;48.112;8.616;2023-04-06T03:52:15;-2.60;99.90
27745;DHT22;61387;48.112;8.616;2023-04-06T03:54:40;-2.60;99.90
27745;DHT22;61387;48.112;8.616;2023-04-06T04:01:58;-2.60;99.90
27745;DHT22;61387;48.112;8.616;2023-04-06T04:06:49;-2.70;99.90
27745;DHT22;61387;48.112;8.616;2023-04-06T04:09:15;-2.60;99.90
27745;DHT22;61387;48.112;8.616;2023-04-06T04:11:40;-2.60;99.90
27745;DHT22;61387;48.112;8.616;2023-04-06T04:14:06;-2.60;99.90
27745;DHT22;61387;48.112;8.616;2023-04-06T04:18:57;-2.60;99.90
27745;DHT22;61387;48.112;8.616;2023-04-06T04:21:24;-2.60;99.90
27745;DHT22;61387;48.112;8.616;2023-04-06T04:23:51;-2.60;99.90
27745;DHT22;61387;48.112;8.616;2023-04-06T04:26:17;-2.70;99.90
27745;DHT22;61387;48.112;8.616;2023-04-06T04:28:43;-2.70;99.90
27745;DHT22;61387;48.112;8.616;2023-04-06T04:31:08;-2.70;99.90
27745;DHT22;61387;48.112;8.616;2023-04-06T04:36:00;-2.60;99.90
27745;DHT22;61387;48.112;8.616;2023-04-06T04:40:52;-2.70;99.90
27745;DHT22;61387;48.112;8.616;2023-04-06T04:45:43;-2.80;99.90
27745;DHT22;61387;48.112;8.616;2023-04-06T04:48:08;-2.80;99.90
27745;DHT22;61387;48.112;8.616;2023-04-06T04:53:00;-2.80;99.90
27745;DHT22;61387;48.112;8.616;2023-04-06T04:55:26;-2.80;99.90
27745;DHT22;61387;48.112;8.616;2023-04-06T05:00:17;-2.80;99.90
27745;DHT22;61387;48.112;8.616;2023-04-06T05:02:43;-2.80;99.90
27745;DHT22;61387;48.112;8.616;2023-04-06T05:05:08;-2.80;99.90
27745;DHT22;61387;48.112;8.616;2023-04-06T05:10:00;-2.60;99.90
27745;DHT22;61387;48.112;8.616;2023-04-06T05:12:26;-2.60;99.90
27745;DHT22;61387;48.112;8.616;2023-04-06T05:14:53;-2.60;99.90
27745;DHT22;61387;48.112;8.616;2023-04-06T05:17:19;-2.60;99.90
27745;DHT22;61387;48.112;8.616;2023-04-06T05:19:44;-2.60;99.90
27745;DHT22;61387;48.112;8.616;2023-04-06T05:22:10;-2.60;99.90
27745;DHT22;61387;48.112;8.616;2023-04-06T05:24:36;-2.50;99.90
27745;DHT22;61387;48.112;8.616;2023-04-06T05:27:01;-2.50;99.90
27745;DHT22;61387;48.112;8.616;2023-04-06T05:29:27;-2.50;99.90
27745;DHT22;61387;48.112;8.616;2023-04-06T05:31:54;-2.40;99.90
27745;DHT22;61387;48.112;8.616;2023-04-06T05:44:03;-2.10;99.90
27745;DHT22;61387;48.112;8.616;2023-04-06T05:48:55;-1.90;99.90
27745;DHT22;61387;48.112;8.616;2023-04-06T05:51:21;-1.80;99.90
27745;DHT22;61387;48.112;8.616;2023-04-06T05:53:46;-1.70;99.90
27745;DHT22;61387;48.112;8.616;2023-04-06T05:56:12;-1.50;99.90
27745;DHT22;61387;48.112;8.616;2023-04-06T05:58:37;-1.50;99.90
27745;DHT22;61387;48.112;8.616;2023-04-06T06:01:03;-1.40;99.90
27745;DHT22;61387;48.112;8.616;2023-04-06T06:06:03;-1.20;99.90
27745;DHT22;61387;48.112;8.616;2023-04-06T06:08:29;-1.20;99.90
27745;DHT22;61387;48.112;8.616;2023-04-06T06:10:55;-1.00;99.90
27745;DHT22;61387;48.112;8.616;2023-04-06T06:13:21;-0.80;99.90
27745;DHT22;61387;48.112;8.616;2023-04-06T06:15:47;-0.90;99.90
27745;DHT22;61387;48.112;8.616;2023-04-06T06:18:13;-0.80;99.90
27745;DHT22;61387;48.112;8.616;2023-04-06T06:20:38;-0.70;99.90
27745;DHT22;61387;48.112;8.616;2023-04-06T06:23:04;-0.60;99.90
27745;DHT22;61387;48.112;8.616;2023-04-06T06:25:30;-0.50;99.90
27745;DHT22;61387;48.112;8.616;2023-04-06T06:27:59;-0.30;99.90
27745;DHT22;61387;48.112;8.616;2023-04-06T06:30:24;-0.20;99.90
27745;DHT22;61387;48.112;8.616;2023-04-06T06:32:50;-0.20;99.90
27745;DHT22;61387;48.112;8.616;2023-04-06T06:35:16;-0.10;99.90
27745;DHT22;61387;48.112;8.616;2023-04-06T06:37:42;0.00;99.90
27745;DHT22;61387;48.112;8.616;2023-04-06T06:40:09;0.20;99.90
27745;DHT22;61387;48.112;8.616;2023-04-06T06:42:35;0.20;99.90
27745;DHT22;61387;48.112;8.616;2023-04-06T06:45:01;0.40;99.90
27745;DHT22;61387;48.112;8.616;2023-04-06T06:47:26;0.40;99.90
27745;DHT22;61387;48.112;8.616;2023-04-06T06:49:52;0.70;99.90
27745;DHT22;61387;48.112;8.616;2023-04-06T06:52:18;0.70;99.90
27745;DHT22;61387;48.112;8.616;2023-04-06T06:54:44;0.90;99.90
27745;DHT22;61387;48.112;8.616;2023-04-06T06:57:09;0.90;99.90
27745;DHT22;61387;48.112;8.616;2023-04-06T06:59:35;1.20;99.90
27745;DHT22;61387;48.112;8.616;2023-04-06T07:02:00;1.10;99.90
27745;DHT22;61387;48.112;8.616;2023-04-06T07:06:52;1.30;99.90
27745;DHT22;61387;48.112;8.616;2023-04-06T07:09:18;1.40;99.90
27745;DHT22;61387;48.112;8.616;2023-04-06T07:11:43;1.50;99.90
27745;DHT22;61387;48.112;8.616;2023-04-06T07:14:09;1.60;99.90
27745;DHT22;61387;48.112;8.616;2023-04-06T07:16:35;1.70;99.90
27745;DHT22;61387;48.112;8.616;2023-04-06T07:19:00;1.80;99.90
27745;DHT22;61387;48.112;8.616;2023-04-06T07:21:26;2.10;99.90
27745;DHT22;61387;48.112;8.616;2023-04-06T07:23:52;2.10;99.90
27745;DHT22;61387;48.112;8.616;2023-04-06T07:28:43;2.30;99.90
27745;DHT22;61387;48.112;8.616;2023-04-06T07:31:09;2.40;99.90
27745;DHT22;61387;48.112;8.616;2023-04-06T07:33:34;2.60;99.90
27745;DHT22;61387;48.112;8.616;2023-04-06T07:36:00;2.80;99.90
27745;DHT22;61387;48.112;8.616;2023-04-06T07:38:26;3.00;99.90
27745;DHT22;61387;48.112;8.616;2023-04-06T07:40:51;3.30;99.90
27745;DHT22;61387;48.112;8.616;2023-04-06T07:43:17;3.50;99.90
27745;DHT22;61387;48.112;8.616;2023-04-06T07:45:42;3.50;99.90
27745;DHT22;61387;48.112;8.616;2023-04-06T07:48:08;3.60;99.90
27745;DHT22;61387;48.112;8.616;2023-04-06T07:50:34;3.80;99.90
27745;DHT22;61387;48.112;8.616;2023-04-06T07:52:59;3.80;99.90
27745;DHT22;61387;48.112;8.616;2023-04-06T07:55:25;4.00;99.90
27745;DHT22;61387;48.112;8.616;2023-04-06T07:57:51;4.20;99.90
27745;DHT22;61387;48.112;8.616;2023-04-06T08:00:17;4.50;99.90
27745;DHT22;61387;48.112;8.616;2023-04-06T08:05:09;4.70;99.90
27745;DHT22;61387;48.112;8.616;2023-04-06T08:07:34;4.80;99.90
27745;DHT22;61387;48.112;8.616;2023-04-06T08:10:01;5.40;99.90
27745;DHT22;61387;48.112;8.616;2023-04-06T08:12:26;5.40;99.90
27745;DHT22;61387;48.112;8.616;2023-04-06T08:22:11;5.90;99.90
27745;DHT22;61387;48.112;8.616;2023-04-06T08:24:37;6.20;99.90
27745;DHT22;61387;48.112;8.616;2023-04-06T08:27:02;6.30;99.90
27745;DHT22;61387;48.112;8.616;2023-04-06T08:29:28;6.50;99.90
27745;DHT22;61387;48.112;8.616;2023-04-06T08:31:54;6.60;99.90
27745;DHT22;61387;48.112;8.616;2023-04-06T08:34:20;6.70;99.90
27745;DHT22;61387;48.112;8.616;2023-04-06T08:46:30;7.30;99.90
27745;DHT22;61387;48.112;8.616;2023-04-06T08:48:57;7.30;99.90
27745;DHT22;61387;48.112;8.616;2023-04-06T08:53:54;7.50;99.90
27745;DHT22;61387;48.112;8.616;2023-04-06T08:56:21;7.70;99.90
27745;DHT22;61387;48.112;8.616;2023-04-06T09:03:41;7.90;99.90
27745;DHT22;61387;48.112;8.616;2023-04-06T09:06:08;8.00;99.90
27745;DHT22;61387;48.112;8.616;2023-04-06T09:08:35;7.90;99.90
27745;DHT22;61387;48.112;8.616;2023-04-06T09:11:02;8.10;99.90
27745;DHT22;61387;48.112;8.616;2023-04-06T09:13:28;8.00;99.90
27745;DHT22;61387;48.112;8.616;2023-04-06T09:16:04;8.20;99.90
27745;DHT22;61387;48.112;8.616;2023-04-06T09:18:32;8.30;99.90
27745;DHT22;61387;48.112;8.616;2023-04-06T09:21:02;8.30;99.90
27745;DHT22;61387;48.112;8.616;2023-04-06T09:23:28;8.40;99.90
27745;DHT22;61387;48.112;8.616;2023-04-06T09:26:11;8.70;99.90
27745;DHT22;61387;48.112;8.616;2023-04-06T09:28:52;8.60;99.90
27745;DHT22;61387;48.112;8.616;2023-04-06T09:31:23;8.50;99.90
27745;DHT22;61387;48.112;8.616;2023-04-06T09:33:49;8.30;99.90
27745;DHT22;61387;48.112;8.616;2023-04-06T09:36:15;8.50;99.90
27745;DHT22;61387;48.112;8.616;2023-04-06T09:38:57;8.50;99.90
27745;DHT22;61387;48.112;8.616;2023-04-06T09:41:31;7.60;99.90
27745;DHT22;61387;48.112;8.616;2023-04-06T09:44:10;8.70;99.90
27745;DHT22;61387;48.112;8.616;2023-04-06T09:46:37;8.90;99.90
27745;DHT22;61387;48.112;8.616;2023-04-06T09:49:05;8.90;99.90
27745;DHT22;61387;48.112;8.616;2023-04-06T09:51:45;9.00;99.90
27745;DHT22;61387;48.112;8.616;2023-04-06T09:54:12;9.10;99.90
27745;DHT22;61387;48.112;8.616;2023-04-06T09:59:16;9.10;99.90
27745;DHT22;61387;48.112;8.616;2023-04-06T10:01:44;9.30;99.90
27745;DHT22;61387;48.112;8.616;2023-04-06T10:04:43;9.50;99.90
27745;DHT22;61387;48.112;8.616;2023-04-06T10:07:10;9.30;99.60
27745;DHT22;61387;48.112;8.616;2023-04-06T10:09:43;9.40;99.70
27745;DHT22;61387;48.112;8.616;2023-04-06T10:12:10;9.40;99.90
27745;DHT22;61387;48.112;8.616;2023-04-06T10:14:38;9.30;99.60
27745;DHT22;61387;48.112;8.616;2023-04-06T10:24:31;9.60;99.90
27745;DHT22;61387;48.112;8.616;2023-04-06T10:27:06;9.90;99.90
27745;DHT22;61387;48.112;8.616;2023-04-06T10:29:44;10.30;98.90
27745;DHT22;61387;48.112;8.616;2023-04-06T10:32:10;10.30;99.50
27745;DHT22;61387;48.112;8.616;2023-04-06T10:34:36;10.30;99.80
27745;DHT22;61387;48.112;8.616;2023-04-06T10:37:15;10.40;99.50
27745;DHT22;61387;48.112;8.616;2023-04-06T10:39:53;10.50;99.50
27745;DHT22;61387;48.112;8.616;2023-04-06T10:42:36;10.50;99.90
27745;DHT22;61387;48.112;8.616;2023-04-06T10:45:06;10.10;98.30
27745;DHT22;61387;48.112;8.616;2023-04-06T10:47:41;9.60;99.70
27745;DHT22;61387;48.112;8.616;2023-04-06T10:50:07;10.10;99.10
27745;DHT22;61387;48.112;8.616;2023-04-06T10:52:33;10.00;99.20
27745;DHT22;61387;48.112;8.616;2023-04-06T10:54:58;10.50;98.90
27745;DHT22;61387;48.112;8.616;2023-04-06T10:57:28;10.70;99.00
27745;DHT22;61387;48.112;8.616;2023-04-06T11:02:20;11.00;97.30
27745;DHT22;61387;48.112;8.616;2023-04-06T11:04:54;11.30;99.10
27745;DHT22;61387;48.112;8.616;2023-04-06T11:07:27;11.40;98.00
27745;DHT22;61387;48.112;8.616;2023-04-06T11:09:56;11.60;97.20
27745;DHT22;61387;48.112;8.616;2023-04-06T11:12:26;11.60;97.50
27745;DHT22;61387;48.112;8.616;2023-04-06T11:14:56;11.50;97.70
27745;DHT22;61387;48.112;8.616;2023-04-06T11:17:28;11.70;97.70
27745;DHT22;61387;48.112;8.616;2023-04-06T11:19:54;11.60;95.90
27745;DHT22;61387;48.112;8.616;2023-04-06T11:22:20;11.50;95.90
27745;DHT22;61387;48.112;8.616;2023-04-06T11:24:46;11.70;97.10
27745;DHT22;61387;48.112;8.616;2023-04-06T11:29:38;11.80;95.50
27745;DHT22;61387;48.112;8.616;2023-04-06T11:32:05;11.70;95.80
27745;DHT22;61387;48.112;8.616;2023-04-06T11:34:34;11.70;96.90
27745;DHT22;61387;48.112;8.616;2023-04-06T11:37:03;11.90;96.90
27745;DHT22;61387;48.112;8.616;2023-04-06T11:39:32;11.70;96.50
27745;DHT22;61387;48.112;8.616;2023-04-06T11:42:02;12.00;97.10
27745;DHT22;61387;48.112;8.616;2023-04-06T11:44:43;12.30;96.90
27745;DHT22;61387;48.112;8.616;2023-04-06T11:47:12;12.70;95.60
27745;DHT22;61387;48.112;8.616;2023-04-06T11:49:40;12.60;95.90
27745;DHT22;61387;48.112;8.616;2023-04-06T11:52:25;12.60;96.20
27745;DHT22;61387;48.112;8.616;2023-04-06T11:54:52;11.50;96.50
27745;DHT22;61387;48.112;8.616;2023-04-06T11:57:20;11.50;96.30
27745;DHT22;61387;48.112;8.616;2023-04-06T12:02:11;11.60;96.50
27745;DHT22;61387;48.112;8.616;2023-04-06T12:04:37;11.00;95.60
27745;DHT22;61387;48.112;8.616;2023-04-06T12:07:04;11.10;95.90
27745;DHT22;61387;48.112;8.616;2023-04-06T12:11:56;11.70;97.00
27745;DHT22;61387;48.112;8.616;2023-04-06T12:14:22;12.10;96.10
27745;DHT22;61387;48.112;8.616;2023-04-06T12:16:48;12.10;96.10
27745;DHT22;61387;48.112;8.616;2023-04-06T12:19:14;12.10;95.80
27745;DHT22;61387;48.112;8.616;2023-04-06T12:21:39;12.30;96.40
27745;DHT22;61387;48.112;8.616;2023-04-06T12:24:06;12.10;95.10
27745;DHT22;61387;48.112;8.616;2023-04-06T12:28:59;12.50;96.80
27745;DHT22;61387;48.112;8.616;2023-04-06T12:31:32;12.70;94.80
27745;DHT22;61387;48.112;8.616;2023-04-06T12:33:57;12.80;95.00
27745;DHT22;61387;48.112;8.616;2023-04-06T12:36:23;12.80;94.70
27745;DHT22;61387;48.112;8.616;2023-04-06T12:38:50;12.50;94.20
27745;DHT22;61387;48.112;8.616;2023-04-06T12:41:17;12.80;93.80
27745;DHT22;61387;48.112;8.616;2023-04-06T12:43:43;12.90;94.00
27745;DHT22;61387;48.112;8.616;2023-04-06T12:48:36;12.80;94.50
27745;DHT22;61387;48.112;8.616;2023-04-06T12:51:04;12.70;90.40
27745;DHT22;61387;48.112;8.616;2023-04-06T12:53:30;12.30;90.50
27745;DHT22;61387;48.112;8.616;2023-04-06T12:55:56;12.30;91.40
27745;DHT22;61387;48.112;8.616;2023-04-06T12:58:23;12.50;90.30
27745;DHT22;61387;48.112;8.616;2023-04-06T13:00:50;12.30;90.40
27745;DHT22;61387;48.112;8.616;2023-04-06T13:03:16;12.30;90.70
27745;DHT22;61387;48.112;8.616;2023-04-06T13:05:46;12.50;90.60
27745;DHT22;61387;48.112;8.616;2023-04-06T13:08:12;12.30;90.70
27745;DHT22;61387;48.112;8.616;2023-04-06T13:15:31;12.40;90.00
27745;DHT22;61387;48.112;8.616;2023-04-06T13:17:57;12.40;90.60
27745;DHT22;61387;48.112;8.616;2023-04-06T13:20:23;12.90;88.20
27745;DHT22;61387;48.112;8.616;2023-04-06T13:22:50;12.90;88.80
27745;DHT22;61387;48.112;8.616;2023-04-06T13:25:16;12.40;89.90
27745;DHT22;61387;48.112;8.616;2023-04-06T13:27:42;12.30;90.60
27745;DHT22;61387;48.112;8.616;2023-04-06T13:30:11;12.60;90.40
27745;DHT22;61387;48.112;8.616;2023-04-06T13:35:03;13.00;88.60
27745;DHT22;61387;48.112;8.616;2023-04-06T13:42:22;13.30;88.90
27745;DHT22;61387;48.112;8.616;2023-04-06T13:44:47;12.80;88.90
27745;DHT22;61387;48.112;8.616;2023-04-06T13:47:13;12.40;90.30
27745;DHT22;61387;48.112;8.616;2023-04-06T13:49:38;12.70;89.20
27745;DHT22;61387;48.112;8.616;2023-04-06T13:52:04;12.70;89.90
27745;DHT22;61387;48.112;8.616;2023-04-06T13:54:30;13.00;88.40
27745;DHT22;61387;48.112;8.616;2023-04-06T13:56:55;13.00;88.90
27745;DHT22;61387;48.112;8.616;2023-04-06T13:59:21;13.10;88.60
27745;DHT22;61387;48.112;8.616;2023-04-06T14:01:47;13.30;89.10
27745;DHT22;61387;48.112;8.616;2023-04-06T14:06:39;13.50;86.20
27745;DHT22;61387;48.112;8.616;2023-04-06T14:11:31;13.20;86.50
27745;DHT22;61387;48.112;8.616;2023-04-06T14:13:57;13.20;89.50
27745;DHT22;61387;48.112;8.616;2023-04-06T14:16:23;13.00;89.40
27745;DHT22;61387;48.112;8.616;2023-04-06T14:18:49;12.60;89.90
27745;DHT22;61387;48.112;8.616;2023-04-06T14:21:14;12.90;90.20
27745;DHT22;61387;48.112;8.616;2023-04-06T14:26:07;13.20;90.70
27745;DHT22;61387;48.112;8.616;2023-04-06T14:28:34;13.30;91.40
27745;DHT22;61387;48.112;8.616;2023-04-06T14:31:01;13.20;90.60
27745;DHT22;61387;48.112;8.616;2023-04-06T14:35:55;12.80;91.00
27745;DHT22;61387;48.112;8.616;2023-04-06T14:40:47;12.90;90.30
27745;DHT22;61387;48.112;8.616;2023-04-06T14:43:13;12.80;89.90
27745;DHT22;61387;48.112;8.616;2023-04-06T14:45:38;12.70;90.50
27745;DHT22;61387;48.112;8.616;2023-04-06T14:48:05;13.00;89.70
27745;DHT22;61387;48.112;8.616;2023-04-06T14:50:32;13.00;88.60
27745;DHT22;61387;48.112;8.616;2023-04-06T14:52:58;13.00;87.30
27745;DHT22;61387;48.112;8.616;2023-04-06T14:55:25;13.10;87.90
27745;DHT22;61387;48.112;8.616;2023-04-06T14:57:50;13.10;87.70
27745;DHT22;61387;48.112;8.616;2023-04-06T15:00:16;13.00;84.80
27745;DHT22;61387;48.112;8.616;2023-04-06T15:05:09;12.90;87.60
27745;DHT22;61387;48.112;8.616;2023-04-06T15:07:34;12.80;86.20
27745;DHT22;61387;48.112;8.616;2023-04-06T15:17:18;12.00;89.00
27745;DHT22;61387;48.112;8.616;2023-04-06T15:24:36;11.50;90.00
27745;DHT22;61387;48.112;8.616;2023-04-06T15:27:02;11.60;90.00
27745;DHT22;61387;48.112;8.616;2023-04-06T15:29:27;11.80;90.60
27745;DHT22;61387;48.112;8.616;2023-04-06T15:31:55;12.10;89.90
27745;DHT22;61387;48.112;8.616;2023-04-06T15:34:21;11.70;87.90
27745;DHT22;61387;48.112;8.616;2023-04-06T15:39:12;11.20;89.10
27745;DHT22;61387;48.112;8.616;2023-04-06T15:41:39;11.30;88.60
27745;DHT22;61387;48.112;8.616;2023-04-06T15:44:04;11.40;88.20
27745;DHT22;61387;48.112;8.616;2023-04-06T15:46:30;11.30;88.40
27745;DHT22;61387;48.112;8.616;2023-04-06T15:48:56;11.10;89.20
27745;DHT22;61387;48.112;8.616;2023-04-06T15:53:48;11.00;89.40
27745;DHT22;61387;48.112;8.616;2023-04-06T15:56:14;11.00;90.10
27745;DHT22;61387;48.112;8.616;2023-04-06T15:58:40;10.90;90.20
27745;DHT22;61387;48.112;8.616;2023-04-06T16:01:15;10.80;89.70
27745;DHT22;61387;48.112;8.616;2023-04-06T16:06:07;10.80;90.10
27745;DHT22;61387;48.112;8.616;2023-04-06T16:10:59;10.70;89.70
27745;DHT22;61387;48.112;8.616;2023-04-06T16:20:43;10.70;90.40
27745;DHT22;61387;48.112;8.616;2023-04-06T16:25:35;10.40;90.50
27745;DHT22;61387;48.112;8.616;2023-04-06T16:28:00;10.50;91.50
27745;DHT22;61387;48.112;8.616;2023-04-06T16:30:26;10.40;91.10
27745;DHT22;61387;48.112;8.616;2023-04-06T16:32:54;10.50;91.50
27745;DHT22;61387;48.112;8.616;2023-04-06T16:35:20;10.50;91.60
27745;DHT22;61387;48.112;8.616;2023-04-06T16:37:46;10.40;91.80
27745;DHT22;61387;48.112;8.616;2023-04-06T16:40:12;10.40;92.30
27745;DHT22;61387;48.112;8.616;2023-04-06T16:45:06;10.20;92.20
27745;DHT22;61387;48.112;8.616;2023-04-06T16:47:31;10.00;92.90
27745;DHT22;61387;48.112;8.616;2023-04-06T16:49:57;10.10;93.30
27745;DHT22;61387;48.112;8.616;2023-04-06T16:54:48;10.10;93.40
27745;DHT22;61387;48.112;8.616;2023-04-06T16:57:14;10.00;93.60
27745;DHT22;61387;48.112;8.616;2023-04-06T17:02:05;10.10;94.10
27745;DHT22;61387;48.112;8.616;2023-04-06T17:04:31;10.00;94.80
27745;DHT22;61387;48.112;8.616;2023-04-06T17:06:56;9.90;94.90
27745;DHT22;61387;48.112;8.616;2023-04-06T17:09:22;9.90;94.50
27745;DHT22;61387;48.112;8.616;2023-04-06T17:11:48;9.80;94.10
27745;DHT22;61387;48.112;8.616;2023-04-06T17:14:13;9.80;94.40
27745;DHT22;61387;48.112;8.616;2023-04-06T17:16:39;9.80;94.60
27745;DHT22;61387;48.112;8.616;2023-04-06T17:19:04;9.60;93.60
27745;DHT22;61387;48.112;8.616;2023-04-06T17:23:56;9.50;93.30
27745;DHT22;61387;48.112;8.616;2023-04-06T17:36:07;9.10;96.10
27745;DHT22;61387;48.112;8.616;2023-04-06T17:38:34;9.10;96.30
27745;DHT22;61387;48.112;8.616;2023-04-06T17:41:00;9.10;96.30
27745;DHT22;61387;48.112;8.616;2023-04-06T17:43:32;9.10;96.40
27745;DHT22;61387;48.112;8.616;2023-04-06T17:45:57;9.10;96.50
27745;DHT22;61387;48.112;8.616;2023-04-06T17:48:23;9.10;96.60
27745;DHT22;61387;48.112;8.616;2023-04-06T17:53:15;9.00;97.60
27745;DHT22;61387;48.112;8.616;2023-04-06T17:58:10;8.80;98.80
27745;DHT22;61387;48.112;8.616;2023-04-06T18:00:36;8.70;99.70
27745;DHT22;61387;48.112;8.616;2023-04-06T18:03:02;8.60;99.90
27745;DHT22;61387;48.112;8.616;2023-04-06T18:05:27;11.00;99.90
27745;DHT22;61387;48.112;8.616;2023-04-06T18:10:20;8.50;99.90
27745;DHT22;61387;48.112;8.616;2023-04-06T18:12:46;8.40;99.90
27745;DHT22;61387;48.112;8.616;2023-04-06T18:15:12;8.40;99.90
27745;DHT22;61387;48.112;8.616;2023-04-06T18:17:37;8.30;99.90
27745;DHT22;61387;48.112;8.616;2023-04-06T18:20:03;8.30;99.90
27745;DHT22;61387;48.112;8.616;2023-04-06T18:22:31;8.30;99.90
27745;DHT22;61387;48.112;8.616;2023-04-06T18:24:57;8.20;99.90
27745;DHT22;61387;48.112;8.616;2023-04-06T18:29:52;8.00;99.90
27745;DHT22;61387;48.112;8.616;2023-04-06T18:32:18;8.00;99.90
27745;DHT22;61387;48.112;8.616;2023-04-06T18:34:43;8.10;99.90
27745;DHT22;61387;48.112;8.616;2023-04-06T18:37:10;8.10;99.90
27745;DHT22;61387;48.112;8.616;2023-04-06T18:39:35;8.10;99.90
27745;DHT22;61387;48.112;8.616;2023-04-06T18:42:01;8.00;99.90
27745;DHT22;61387;48.112;8.616;2023-04-06T18:44:27;8.00;99.90
27745;DHT22;61387;48.112;8.616;2023-04-06T18:46:53;7.90;99.90
27745;DHT22;61387;48.112;8.616;2023-04-06T18:49:18;7.90;99.90
27745;DHT22;61387;48.112;8.616;2023-04-06T18:51:44;7.90;99.90
27745;DHT22;61387;48.112;8.616;2023-04-06T18:54:10;7.90;99.90
27745;DHT22;61387;48.112;8.616;2023-04-06T18:59:03;7.80;99.90
27745;DHT22;61387;48.112;8.616;2023-04-06T19:01:29;7.70;99.90
27745;DHT22;61387;48.112;8.616;2023-04-06T19:03:56;7.70;99.90
27745;DHT22;61387;48.112;8.616;2023-04-06T19:06:23;7.70;99.90
27745;DHT22;61387;48.112;8.616;2023-04-06T19:11:15;7.60;99.90
27745;DHT22;61387;48.112;8.616;2023-04-06T19:13:41;7.60;99.90
27745;DHT22;61387;48.112;8.616;2023-04-06T19:21:14;7.50;99.90
27745;DHT22;61387;48.112;8.616;2023-04-06T19:26:09;7.30;99.90
27745;DHT22;61387;48.112;8.616;2023-04-06T19:28:35;7.20;99.90
27745;DHT22;61387;48.112;8.616;2023-04-06T19:33:27;7.10;99.90
27745;DHT22;61387;48.112;8.616;2023-04-06T19:35:53;7.00;99.90
27745;DHT22;61387;48.112;8.616;2023-04-06T19:38:18;6.90;99.90
27745;DHT22;61387;48.112;8.616;2023-04-06T19:40:44;6.80;99.90
27745;DHT22;61387;48.112;8.616;2023-04-06T19:43:09;6.70;99.90
27745;DHT22;61387;48.112;8.616;2023-04-06T19:45:35;6.70;99.90
27745;DHT22;61387;48.112;8.616;2023-04-06T19:48:00;6.70;99.90
27745;DHT22;61387;48.112;8.616;2023-04-06T19:50:26;6.60;99.90
27745;DHT22;61387;48.112;8.616;2023-04-06T19:52:51;6.50;99.90
27745;DHT22;61387;48.112;8.616;2023-04-06T19:55:19;6.50;99.90
27745;DHT22;61387;48.112;8.616;2023-04-06T20:00:11;6.40;99.90
27745;DHT22;61387;48.112;8.616;2023-04-06T20:02:37;6.40;99.90
27745;DHT22;61387;48.112;8.616;2023-04-06T20:05:03;6.30;99.90
27745;DHT22;61387;48.112;8.616;2023-04-06T20:07:28;6.30;99.90
27745;DHT22;61387;48.112;8.616;2023-04-06T20:22:04;6.30;99.90
27745;DHT22;61387;48.112;8.616;2023-04-06T20:24:29;6.30;99.90
27745;DHT22;61387;48.112;8.616;2023-04-06T20:26:55;6.20;99.90
27745;DHT22;61387;48.112;8.616;2023-04-06T20:31:48;6.20;99.90